Seven Corners, Virginia
Current Conditions -  °F | °C
As of 5:52 AM on Sunday 23 Nov 2014 (Local Time) from KDCA Reporting Station
Broken Clouds Broken Clouds  
Wind Chill: 36°   Ceiling: 25000
Heat Index: 40°   Visibility: 10mi
Dew Point: 20°   Wind: 6mph
Humidity: 45%   Direction: 210°SSW
Pressure: 30.23"   Gusts: NA
Location:  38.8591°N, 77.1567°W
Report Text: KDCA 231052Z 21005KT 10SM FEW100 BKN250 04/M07 A3023 RMK AO2 SLP236 T00441067
Loading
Personal Weather Stations






























Interactive Weather Map New forecast layout! Learn more

10-Day Weather Forecast

Advertisements
Track Severe Weather on mobile